createdAt,value
2022-07-25T00:00:44.229Z,82.87
2022-07-25T00:01:44.294Z,83.18
2022-07-25T00:02:44.224Z,83.12
2022-07-25T00:03:44.228Z,83.07
2022-07-25T00:04:44.262Z,83.22
2022-07-25T00:05:44.194Z,82.71
2022-07-25T00:06:44.180Z,82.71
2022-07-25T00:07:44.181Z,82.78
2022-07-25T00:08:44.193Z,82.81
2022-07-25T00:09:44.162Z,82.71
2022-07-25T00:10:44.149Z,82.57
2022-07-25T00:11:44.140Z,82.47
2022-07-25T00:12:44.140Z,82.61
2022-07-25T00:13:44.149Z,82.71
2022-07-25T00:14:44.123Z,83.01
2022-07-25T00:15:44.166Z,83.22
2022-07-25T00:16:44.106Z,83.22
2022-07-25T00:17:44.090Z,83.01
2022-07-25T00:18:44.109Z,84.12
2022-07-25T00:19:44.074Z,83.96
2022-07-25T00:20:44.065Z,84.37
2022-07-25T00:21:45.065Z,83.96
2022-07-25T00:22:44.050Z,83.86
2022-07-25T00:23:44.069Z,84.37
2022-07-25T00:24:44.039Z,84.27
2022-07-25T00:25:44.033Z,84.81
2022-07-25T00:26:44.020Z,84.57
2022-07-25T00:27:44.014Z,84.91
2022-07-25T00:28:44.039Z,85.02
2022-07-25T00:29:44.001Z,84.61
2022-07-25T00:30:44.112Z,84.71
2022-07-25T00:31:44.049Z,84.81
2022-07-25T00:32:43.970Z,84.91
2022-07-25T00:33:43.991Z,84.81
2022-07-25T00:34:43.956Z,85.22
2022-07-25T00:35:43.950Z,84.71
2022-07-25T00:36:43.943Z,85.05
2022-07-25T00:37:43.932Z,85.56
2022-07-25T00:38:43.952Z,85.02
2022-07-25T00:39:43.923Z,85.56
2022-07-25T00:40:43.913Z,85.56
2022-07-25T00:41:43.902Z,84.65
2022-07-25T00:42:43.897Z,85.52
2022-07-25T00:43:43.920Z,85.76
2022-07-25T00:44:43.878Z,85.52
2022-07-25T00:45:43.881Z,85.66
2022-07-25T00:46:43.925Z,85.52
2022-07-25T00:47:43.855Z,85.76
2022-07-25T00:48:43.950Z,85.56
2022-07-25T00:49:43.849Z,85.96
2022-07-25T00:50:43.835Z,85.96
2022-07-25T00:51:43.828Z,85.86
2022-07-25T00:52:43.824Z,85.96
2022-07-25T00:53:43.818Z,86.16
2022-07-25T00:54:43.831Z,86.37
2022-07-25T00:55:43.797Z,86.16
2022-07-25T00:56:43.789Z,86.31
2022-07-25T00:57:43.782Z,86.10
2022-07-25T00:58:43.889Z,86.27
2022-07-25T00:59:43.765Z,86.00
2022-07-25T01:00:44.762Z,86.31
2022-07-25T01:01:43.779Z,86.10
2022-07-25T01:02:43.816Z,86.16
2022-07-25T01:03:43.742Z,86.00
2022-07-25T01:04:43.765Z,86.10
2022-07-25T01:05:43.730Z,86.00
2022-07-25T01:06:43.715Z,86.31
2022-07-25T01:07:43.702Z,86.00
2022-07-25T01:08:43.690Z,86.21
2022-07-25T01:09:43.708Z,86.21
2022-07-25T01:10:43.676Z,86.31
2022-07-25T01:11:43.670Z,85.70
2022-07-25T01:12:43.664Z,86.21
2022-07-25T01:13:43.655Z,86.21
2022-07-25T01:14:43.673Z,85.90
2022-07-25T01:15:43.683Z,86.31
2022-07-25T01:16:43.650Z,85.90
2022-07-25T01:17:43.631Z,87.16
2022-07-25T01:18:43.620Z,87.05
2022-07-25T01:19:43.635Z,86.96
2022-07-25T01:20:43.612Z,86.25
2022-07-25T01:21:43.595Z,86.96
2022-07-25T01:22:43.594Z,86.96
2022-07-25T01:23:43.584Z,87.05
2022-07-25T01:24:43.603Z,87.05
2022-07-25T01:25:43.573Z,87.16
2022-07-25T01:26:43.563Z,86.96
2022-07-25T01:27:43.567Z,86.25
2022-07-25T01:28:43.554Z,86.25
2022-07-25T01:29:43.567Z,87.16
2022-07-25T01:30:43.594Z,87.05
2022-07-25T01:31:43.536Z,86.96
2022-07-25T01:32:43.516Z,86.85
2022-07-25T01:33:43.510Z,86.90
2022-07-25T01:34:43.531Z,86.76
2022-07-25T01:35:43.744Z,87.51
2022-07-25T01:36:44.490Z,87.20
2022-07-25T01:37:46.021Z,87.10
2022-07-25T01:38:43.474Z,87.40
2022-07-25T01:39:43.493Z,87.51
2022-07-25T01:40:43.462Z,88.31
2022-07-25T01:41:43.451Z,88.51
2022-07-25T01:42:43.455Z,88.05
2022-07-25T01:43:43.438Z,88.25
2022-07-25T01:44:43.458Z,88.66
2022-07-25T01:45:43.418Z,88.25
2022-07-25T01:46:43.510Z,88.86
2022-07-25T01:47:43.405Z,88.46
2022-07-25T01:48:43.468Z,88.05
2022-07-25T01:49:43.413Z,87.65
2022-07-25T01:50:43.381Z,88.46
2022-07-25T01:51:43.373Z,87.95
2022-07-25T01:52:43.365Z,88.15
2022-07-25T01:53:43.358Z,88.05
2022-07-25T01:54:43.480Z,88.66
2022-07-25T01:55:43.348Z,88.31
2022-07-25T01:56:43.335Z,88.96
2022-07-25T01:57:49.719Z,88.56
2022-07-25T01:58:44.328Z,88.35
2022-07-25T01:59:43.347Z,88.46
2022-07-25T02:00:43.337Z,88.46
2022-07-25T02:01:43.435Z,88.46
2022-07-25T02:02:43.293Z,88.35
2022-07-25T02:03:43.287Z,88.46
2022-07-25T02:04:43.351Z,88.35
2022-07-25T02:05:43.269Z,88.66
2022-07-25T02:06:43.259Z,88.70
2022-07-25T02:07:43.248Z,88.80
2022-07-25T02:08:43.247Z,88.49
2022-07-25T02:09:43.261Z,88.80
2022-07-25T02:10:43.228Z,89.21
2022-07-25T02:11:43.216Z,89.01
2022-07-25T02:12:43.216Z,89.41
2022-07-25T02:13:43.212Z,89.45
2022-07-25T02:14:43.223Z,89.55
2022-07-25T02:15:43.194Z,89.01
2022-07-25T02:16:43.240Z,89.35
2022-07-25T02:17:43.176Z,89.15
2022-07-25T02:18:43.170Z,89.15
2022-07-25T02:19:43.194Z,89.45
2022-07-25T02:20:43.155Z,89.45
2022-07-25T02:21:43.146Z,89.45
2022-07-25T02:22:43.143Z,89.15
2022-07-25T02:23:43.159Z,89.45
2022-07-25T02:24:43.145Z,89.65
2022-07-25T02:25:43.110Z,89.96
2022-07-25T02:26:43.108Z,90.16
2022-07-25T02:27:43.096Z,89.96
2022-07-25T02:28:43.090Z,90.06
2022-07-25T02:29:43.109Z,89.96
2022-07-25T02:30:43.138Z,89.65
2022-07-25T02:31:43.068Z,89.65
2022-07-25T02:32:43.066Z,90.16
2022-07-25T02:33:43.052Z,90.20
2022-07-25T02:34:43.074Z,90.06
2022-07-25T02:35:43.040Z,89.96
2022-07-25T02:36:43.035Z,89.86
2022-07-25T02:37:43.023Z,90.16
2022-07-25T02:38:43.020Z,90.31
2022-07-25T02:39:43.034Z,90.36
2022-07-25T02:40:43.004Z,89.80
2022-07-25T02:41:43.002Z,89.80
2022-07-25T02:42:42.990Z,90.41
2022-07-25T02:43:42.981Z,90.20
2022-07-25T02:44:43.006Z,90.20
2022-07-25T02:45:43.024Z,90.20
2022-07-25T02:46:42.956Z,90.41
2022-07-25T02:47:42.961Z,90.31
2022-07-25T02:48:43.000Z,90.41
2022-07-25T02:49:42.966Z,90.61
2022-07-25T02:50:42.935Z,90.31
2022-07-25T02:51:42.923Z,90.41
2022-07-25T02:52:42.915Z,90.20
2022-07-25T02:53:58.831Z,90.71
2022-07-25T02:54:44.935Z,90.41
2022-07-25T02:55:42.895Z,90.31
2022-07-25T02:56:42.878Z,90.31
2022-07-25T02:57:42.872Z,90.31
2022-07-25T02:58:42.871Z,90.71
2022-07-25T02:59:42.862Z,90.71
2022-07-25T03:00:44.297Z,90.51
2022-07-25T03:01:42.889Z,90.31
2022-07-25T03:02:42.842Z,90.51
2022-07-25T03:03:42.895Z,90.31
2022-07-25T03:04:42.821Z,90.41
2022-07-25T03:05:42.833Z,90.51
2022-07-25T03:06:42.809Z,90.11
2022-07-25T03:07:42.799Z,90.51
2022-07-25T03:08:42.792Z,90.51
2022-07-25T03:09:42.789Z,90.31
2022-07-25T03:10:42.806Z,90.51
2022-07-25T03:11:42.768Z,90.51
2022-07-25T03:12:42.757Z,90.31
2022-07-25T03:13:42.756Z,90.81
2022-07-25T03:14:42.739Z,91.12
2022-07-25T03:15:42.760Z,91.22
2022-07-25T03:16:42.815Z,91.47
2022-07-25T03:17:42.726Z,91.36
2022-07-25T03:18:42.717Z,91.63
2022-07-25T03:19:42.711Z,91.67
2022-07-25T03:20:42.729Z,91.12
2022-07-25T03:21:42.698Z,91.02
2022-07-25T03:22:42.691Z,90.81
2022-07-25T03:23:42.673Z,91.12
2022-07-25T03:24:42.668Z,90.81
2022-07-25T03:25:42.681Z,90.71
2022-07-25T03:26:42.649Z,91.32
2022-07-25T03:27:42.647Z,91.73
2022-07-25T03:28:42.631Z,91.63
2022-07-25T03:29:42.622Z,90.92
2022-07-25T03:30:42.679Z,90.81
2022-07-25T03:31:42.657Z,90.71
2022-07-25T03:32:42.622Z,90.61
2022-07-25T03:33:42.594Z,90.81
2022-07-25T03:34:42.586Z,90.41
2022-07-25T03:35:42.606Z,90.75
2022-07-25T03:36:42.573Z,90.41
2022-07-25T03:37:42.563Z,90.51
2022-07-25T03:38:42.549Z,90.11
2022-07-25T03:39:42.553Z,90.51
2022-07-25T03:40:42.566Z,90.51
2022-07-25T03:41:42.531Z,90.51
2022-07-25T03:42:42.529Z,90.31
2022-07-25T03:43:42.515Z,90.81
2022-07-25T03:44:42.507Z,90.41
2022-07-25T03:45:42.674Z,90.81
2022-07-25T03:46:42.497Z,90.61
2022-07-25T03:47:42.481Z,90.51
2022-07-25T03:48:42.529Z,90.51
2022-07-25T03:49:42.472Z,90.20
2022-07-25T03:50:42.487Z,90.41
2022-07-25T03:51:42.456Z,90.31
2022-07-25T03:52:42.442Z,90.61
2022-07-25T03:53:43.438Z,90.61
2022-07-25T03:54:42.424Z,90.61
2022-07-25T03:55:42.447Z,90.71
2022-07-25T03:56:43.881Z,90.41
2022-07-25T03:57:42.405Z,90.16
2022-07-25T03:58:42.404Z,89.11
2022-07-25T03:59:42.414Z,89.77
2022-07-25T04:00:42.464Z,88.21
2022-07-25T04:01:43.374Z,87.56
2022-07-25T04:02:42.435Z,86.55
2022-07-25T04:03:42.366Z,85.80
2022-07-25T04:04:42.342Z,85.05
2022-07-25T04:05:47.250Z,84.81
2022-07-25T04:06:44.334Z,83.82
2022-07-25T04:07:42.326Z,82.07
2022-07-25T04:08:42.323Z,81.02
2022-07-25T04:09:42.316Z,80.21
2022-07-25T04:10:42.327Z,78.92
2022-07-25T04:11:42.297Z,78.89
2022-07-25T04:12:42.304Z,77.58
2022-07-25T04:13:42.313Z,76.84
2022-07-25T04:14:42.272Z,76.34
2022-07-25T04:15:42.292Z,76.10
2022-07-25T04:16:42.294Z,75.46
2022-07-25T04:17:42.245Z,75.35
2022-07-25T04:18:42.239Z,74.52
2022-07-25T04:19:42.231Z,73.78
2022-07-25T04:20:42.244Z,73.74
2022-07-25T04:21:42.214Z,72.64
2022-07-25T04:22:46.344Z,72.10
2022-07-25T04:23:43.192Z,71.77
2022-07-25T04:24:42.195Z,71.66
2022-07-25T04:25:42.207Z,70.83
2022-07-25T04:26:42.174Z,70.83
2022-07-25T04:27:42.168Z,69.92
2022-07-25T04:28:42.170Z,70.39
2022-07-25T04:29:42.151Z,69.96
2022-07-25T04:30:42.167Z,69.86
2022-07-25T04:31:42.195Z,68.65
2022-07-25T04:32:42.131Z,69.32
2022-07-25T04:33:42.123Z,68.29
2022-07-25T04:34:42.115Z,68.09
2022-07-25T04:35:42.139Z,67.76
2022-07-25T04:36:42.101Z,66.82
2022-07-25T04:37:42.089Z,66.42
2022-07-25T04:38:42.090Z,65.89
2022-07-25T04:39:42.075Z,65.39
2022-07-25T04:40:42.097Z,66.09
2022-07-25T04:41:42.061Z,64.46
2022-07-25T04:42:42.059Z,64.63
2022-07-25T04:43:48.004Z,64.17
2022-07-25T04:44:44.026Z,63.77
2022-07-25T04:45:43.109Z,62.67
2022-07-25T04:46:42.019Z,62.34
2022-07-25T04:47:42.033Z,62.45
2022-07-25T04:48:42.040Z,62.61
2022-07-25T04:49:42.005Z,61.91
2022-07-25T04:50:42.020Z,62.31
2022-07-25T04:51:41.987Z,61.58
2022-07-25T04:52:41.978Z,60.26
2022-07-25T04:53:41.966Z,60.03
2022-07-25T04:54:41.967Z,60.13
2022-07-25T04:55:41.989Z,59.68
2022-07-25T04:56:41.958Z,58.36
2022-07-25T04:57:41.943Z,58.45
2022-07-25T04:58:41.940Z,58.45
2022-07-25T04:59:41.939Z,58.06
2022-07-25T05:00:42.027Z,58.65
2022-07-25T05:01:41.930Z,59.08
2022-07-25T05:02:41.979Z,58.56
2022-07-25T05:03:41.948Z,58.95
2022-07-25T05:04:45.443Z,58.58
2022-07-25T05:05:42.932Z,58.03
2022-07-25T05:06:41.875Z,57.66
2022-07-25T05:07:41.855Z,57.96
2022-07-25T05:08:42.858Z,58.36
2022-07-25T05:09:41.854Z,57.76
2022-07-25T05:10:41.898Z,57.73
2022-07-25T05:11:46.847Z,57.01
2022-07-25T05:12:43.831Z,56.88
2022-07-25T05:13:41.827Z,56.36
2022-07-25T05:14:41.902Z,56.68
2022-07-25T05:15:42.859Z,56.46
2022-07-25T05:16:41.870Z,55.44
2022-07-25T05:17:41.804Z,55.02
2022-07-25T05:18:41.789Z,55.58
2022-07-25T05:19:41.787Z,54.82
2022-07-25T05:20:41.813Z,55.19
2022-07-25T05:21:41.767Z,54.89
2022-07-25T05:22:41.763Z,54.20
2022-07-25T05:23:41.757Z,53.95
2022-07-25T05:24:41.822Z,53.25
2022-07-25T05:25:41.775Z,53.13
2022-07-25T05:26:41.740Z,53.50
2022-07-25T05:27:41.745Z,53.30
2022-07-25T05:28:41.730Z,53.38
2022-07-25T05:29:41.711Z,52.48
2022-07-25T05:30:41.751Z,51.87
2022-07-25T05:31:41.730Z,51.57
2022-07-25T05:32:41.693Z,51.32
2022-07-25T05:33:41.687Z,51.32
2022-07-25T05:34:41.679Z,51.30
2022-07-25T05:35:41.699Z,50.41
2022-07-25T05:36:46.856Z,50.29
2022-07-25T05:37:43.657Z,50.29
2022-07-25T05:38:41.661Z,49.08
2022-07-25T05:39:41.655Z,49.57
2022-07-25T05:40:41.658Z,49.85
2022-07-25T05:41:41.635Z,48.57
2022-07-25T05:42:41.627Z,49.16
2022-07-25T05:43:41.624Z,49.23
2022-07-25T05:44:41.615Z,49.13
2022-07-25T05:45:41.648Z,48.94
2022-07-25T05:46:41.688Z,48.44
2022-07-25T05:47:41.606Z,49.43
2022-07-25T05:48:41.632Z,48.30
2022-07-25T05:49:41.585Z,46.97
2022-07-25T05:50:41.606Z,47.29
2022-07-25T05:51:41.567Z,47.51
2022-07-25T05:52:41.572Z,47.19
2022-07-25T05:53:41.564Z,47.00
2022-07-25T05:54:41.552Z,47.00
2022-07-25T05:55:41.560Z,46.90
2022-07-25T05:56:41.565Z,47.19
2022-07-25T05:57:41.592Z,47.36
2022-07-25T05:58:41.526Z,47.07
2022-07-25T05:59:41.520Z,46.38
2022-07-25T06:00:41.518Z,46.38
2022-07-25T06:01:41.652Z,46.53
2022-07-25T06:02:41.561Z,46.14
2022-07-25T06:03:41.501Z,46.12
2022-07-25T06:04:41.495Z,46.51
2022-07-25T06:05:41.510Z,45.92
2022-07-25T06:06:41.510Z,46.00
2022-07-25T06:07:41.475Z,45.12
2022-07-25T06:08:41.474Z,45.41
2022-07-25T06:09:41.468Z,45.83
2022-07-25T06:10:41.459Z,46.00
2022-07-25T06:11:54.692Z,45.12
2022-07-25T06:12:42.441Z,45.21
2022-07-25T06:13:41.439Z,45.21
2022-07-25T06:14:41.442Z,43.82
2022-07-25T06:15:41.429Z,44.12
2022-07-25T06:16:41.490Z,44.56
2022-07-25T06:17:41.421Z,45.17
2022-07-25T06:18:41.412Z,43.98
2022-07-25T06:19:41.412Z,43.77
2022-07-25T06:20:41.409Z,44.44
2022-07-25T06:21:41.428Z,44.73
2022-07-25T06:22:41.388Z,44.34
2022-07-25T06:23:41.390Z,44.62
2022-07-25T06:24:41.389Z,43.76
2022-07-25T06:25:41.378Z,44.98
2022-07-25T06:26:41.390Z,45.68
2022-07-25T06:27:41.366Z,46.20
2022-07-25T06:28:41.361Z,46.47
2022-07-25T06:29:41.367Z,45.66
2022-07-25T06:30:41.351Z,44.95
2022-07-25T06:31:41.440Z,44.85
2022-07-25T06:32:41.336Z,45.56
2022-07-25T06:33:41.329Z,45.66
2022-07-25T06:34:41.317Z,45.44
2022-07-25T06:35:42.328Z,45.03
2022-07-25T06:36:41.341Z,44.13
2022-07-25T06:37:41.309Z,43.71
2022-07-25T06:38:41.308Z,43.38
2022-07-25T06:39:45.516Z,43.48
2022-07-25T06:40:42.292Z,42.79
2022-07-25T06:41:41.312Z,42.30
2022-07-25T06:42:41.277Z,42.79
2022-07-25T06:43:41.283Z,42.77
2022-07-25T06:44:41.275Z,42.07
2022-07-25T06:45:41.264Z,40.91
2022-07-25T06:46:41.384Z,39.75
2022-07-25T06:47:41.260Z,40.16
2022-07-25T06:48:41.319Z,41.25
2022-07-25T06:49:41.241Z,41.17
2022-07-25T06:50:41.238Z,41.07
2022-07-25T06:51:41.262Z,40.97
2022-07-25T06:52:41.231Z,40.73
2022-07-25T06:53:41.233Z,39.94
2022-07-25T06:54:41.237Z,40.03
2022-07-25T06:55:41.222Z,40.62
2022-07-25T06:56:41.230Z,41.40
2022-07-25T06:57:41.206Z,40.60
2022-07-25T06:58:41.210Z,40.11
2022-07-25T06:59:41.204Z,40.01
2022-07-25T07:00:41.241Z,38.93
2022-07-25T07:01:41.217Z,39.80
2022-07-25T07:02:41.248Z,40.21
2022-07-25T07:03:41.260Z,39.31
2022-07-25T07:04:41.180Z,39.31
2022-07-25T07:05:41.171Z,38.40
2022-07-25T07:06:41.189Z,39.18
2022-07-25T07:07:45.701Z,38.07
2022-07-25T07:08:43.151Z,37.86
2022-07-25T07:09:41.160Z,37.16
2022-07-25T07:10:41.156Z,37.74
2022-07-25T07:11:41.163Z,37.66
2022-07-25T07:12:41.139Z,37.57
2022-07-25T07:13:41.124Z,38.48
2022-07-25T07:14:41.145Z,37.96
2022-07-25T07:15:41.146Z,37.34
2022-07-25T07:16:41.232Z,37.55
2022-07-25T07:17:41.110Z,37.73
2022-07-25T07:18:44.614Z,37.03
2022-07-25T07:19:42.134Z,36.93
2022-07-25T07:20:41.094Z,37.43
2022-07-25T07:21:41.111Z,37.43
2022-07-25T07:22:41.089Z,37.74
2022-07-25T07:23:41.074Z,37.57
2022-07-25T07:24:45.151Z,37.94
2022-07-25T07:25:43.066Z,37.41
2022-07-25T07:26:41.082Z,37.63
2022-07-25T07:27:41.051Z,37.43
2022-07-25T07:28:41.044Z,37.82
2022-07-25T07:29:41.049Z,36.93
2022-07-25T07:31:43.110Z,37.38
2022-07-25T07:32:41.029Z,36.47
2022-07-25T07:33:41.029Z,36.08
2022-07-25T07:34:41.022Z,37.55
2022-07-25T07:35:41.013Z,36.90
2022-07-25T07:36:41.027Z,36.90
2022-07-25T07:37:43.687Z,37.40
2022-07-25T07:38:42.005Z,36.91
2022-07-25T07:39:40.993Z,36.82
2022-07-25T07:40:40.989Z,37.09
2022-07-25T07:41:41.004Z,36.78
2022-07-25T07:42:40.976Z,36.68
2022-07-25T07:43:40.968Z,36.58
2022-07-25T07:44:40.964Z,36.65
2022-07-25T07:45:40.962Z,35.68
2022-07-25T07:46:41.015Z,36.46
2022-07-25T07:47:40.946Z,37.24
2022-07-25T07:48:40.990Z,36.68
2022-07-25T07:49:40.942Z,36.36
2022-07-25T07:50:40.958Z,35.47
2022-07-25T07:51:40.957Z,35.45
2022-07-25T07:52:40.921Z,36.13
2022-07-25T07:53:40.905Z,34.97
2022-07-25T07:54:41.914Z,36.46
2022-07-25T07:55:40.913Z,36.74
2022-07-25T07:56:40.928Z,36.74
2022-07-25T07:57:40.904Z,36.46
2022-07-25T07:58:40.902Z,35.64
2022-07-25T07:59:40.901Z,35.34
2022-07-25T08:00:40.884Z,34.92
2022-07-25T08:01:40.944Z,34.69
2022-07-25T08:02:40.974Z,34.38
2022-07-25T08:03:40.875Z,34.96
2022-07-25T08:04:40.870Z,34.56
2022-07-25T08:05:40.869Z,34.96
2022-07-25T08:06:40.890Z,34.58
2022-07-25T08:07:40.855Z,34.77
2022-07-25T08:08:40.852Z,34.53
2022-07-25T08:09:40.844Z,35.72
2022-07-25T08:10:40.840Z,36.72
2022-07-25T08:11:40.856Z,36.82
2022-07-25T08:12:40.829Z,37.42
2022-07-25T08:13:40.901Z,37.02
2022-07-25T08:14:40.822Z,36.92
2022-07-25T08:15:40.840Z,35.86
2022-07-25T08:16:40.952Z,36.71
2022-07-25T08:17:40.806Z,36.79
2022-07-25T08:18:40.813Z,36.98
2022-07-25T08:19:40.798Z,36.48
2022-07-25T08:20:40.845Z,36.11
2022-07-25T08:21:40.838Z,36.11
2022-07-25T08:22:40.814Z,37.08
2022-07-25T08:23:40.787Z,37.00
2022-07-25T08:24:40.783Z,35.82
2022-07-25T08:25:40.771Z,36.30
2022-07-25T08:26:40.770Z,36.50
2022-07-25T08:27:40.785Z,35.80
2022-07-25T08:28:40.787Z,36.48
2022-07-25T08:29:40.758Z,35.53
2022-07-25T08:30:40.762Z,36.59
2022-07-25T08:31:40.777Z,36.50
2022-07-25T08:32:40.770Z,35.63
2022-07-25T08:33:40.742Z,36.59
2022-07-25T08:34:40.744Z,36.50
2022-07-25T08:35:40.733Z,35.61
2022-07-25T08:36:40.725Z,35.69
2022-07-25T08:37:40.751Z,36.29
2022-07-25T08:38:40.711Z,36.38
2022-07-25T08:39:40.708Z,35.69
2022-07-25T08:40:40.708Z,35.21
2022-07-25T08:41:40.703Z,36.36
2022-07-25T08:42:40.731Z,35.78
2022-07-25T08:43:40.699Z,36.36
2022-07-25T08:44:40.690Z,36.17
2022-07-25T08:45:40.669Z,35.90
2022-07-25T08:46:41.825Z,36.21
2022-07-25T08:47:40.702Z,36.52
2022-07-25T08:48:40.738Z,36.90
2022-07-25T08:49:40.666Z,37.10
2022-07-25T08:50:40.666Z,36.90
2022-07-25T08:51:40.652Z,37.17
2022-07-25T08:52:40.676Z,37.27
2022-07-25T08:53:40.640Z,36.57
2022-07-25T08:54:40.642Z,36.36
2022-07-25T08:55:40.632Z,35.90
2022-07-25T08:56:40.630Z,36.57
2022-07-25T08:57:40.654Z,35.71
2022-07-25T08:58:40.630Z,37.13
2022-07-25T08:59:40.613Z,35.64
2022-07-25T09:00:40.608Z,36.50
2022-07-25T09:01:40.641Z,36.92
2022-07-25T09:02:40.658Z,37.32
2022-07-25T09:03:40.589Z,36.92
2022-07-25T09:04:41.595Z,36.71
2022-07-25T09:05:40.589Z,36.72
2022-07-25T09:06:40.580Z,37.12
2022-07-25T09:07:40.602Z,36.24
2022-07-25T09:08:40.572Z,36.92
2022-07-25T09:09:40.566Z,36.82
2022-07-25T09:10:40.560Z,37.42
2022-07-25T09:11:40.544Z,37.04
2022-07-25T09:12:41.576Z,37.62
2022-07-25T09:13:40.545Z,36.94
2022-07-25T09:14:40.537Z,37.32
2022-07-25T09:15:40.566Z,37.54
2022-07-25T09:16:41.072Z,37.46
2022-07-25T09:17:40.551Z,38.07
2022-07-25T09:18:40.522Z,37.57
2022-07-25T09:19:40.519Z,36.99
2022-07-25T09:20:40.509Z,37.65
2022-07-25T09:21:40.509Z,37.88
2022-07-25T09:22:40.527Z,37.98
2022-07-25T09:23:40.502Z,37.59
2022-07-25T09:24:40.497Z,38.25
2022-07-25T09:25:40.486Z,38.04
2022-07-25T09:26:40.482Z,37.82
2022-07-25T09:27:40.514Z,37.24
2022-07-25T09:28:40.478Z,37.26
2022-07-25T09:29:40.473Z,37.67
2022-07-25T09:30:40.519Z,37.79
2022-07-25T09:31:40.525Z,37.11
2022-07-25T09:32:40.473Z,37.87
2022-07-25T09:33:40.449Z,37.87
2022-07-25T09:34:40.443Z,37.26
2022-07-25T09:35:40.436Z,37.73
2022-07-25T09:36:40.417Z,37.34
2022-07-25T09:37:41.451Z,37.65
2022-07-25T09:38:40.426Z,37.96
2022-07-25T09:39:45.392Z,37.32
2022-07-25T09:40:42.405Z,38.09
2022-07-25T09:41:40.398Z,38.79
2022-07-25T09:42:40.419Z,38.21
2022-07-25T09:43:40.389Z,38.79
2022-07-25T09:44:40.377Z,38.99
2022-07-25T09:45:40.377Z,37.92
2022-07-25T09:46:40.401Z,39.11
2022-07-25T09:47:40.391Z,39.78
2022-07-25T09:48:40.384Z,39.37
2022-07-25T09:49:40.350Z,39.29
2022-07-25T09:50:40.350Z,39.22
2022-07-25T09:51:40.343Z,39.20
2022-07-25T09:52:40.360Z,39.22
2022-07-25T09:53:40.330Z,39.29
2022-07-25T09:54:40.318Z,39.78
2022-07-25T09:55:40.315Z,37.55
2022-07-25T09:56:40.305Z,37.84
2022-07-25T09:57:40.321Z,37.37
2022-07-25T09:58:40.300Z,37.26
2022-07-25T09:59:40.290Z,37.16
2022-07-25T10:00:40.282Z,37.82
2022-07-25T10:01:40.312Z,37.63
2022-07-25T10:02:40.331Z,36.93
2022-07-25T10:03:40.262Z,37.51
2022-07-25T10:04:40.256Z,37.49
2022-07-25T10:05:40.252Z,37.79
2022-07-25T10:06:40.245Z,37.61
2022-07-25T10:07:40.259Z,37.49
2022-07-25T10:08:40.231Z,37.48
2022-07-25T10:09:40.233Z,37.90
2022-07-25T10:10:40.234Z,37.49
2022-07-25T10:11:40.215Z,38.17
2022-07-25T10:12:40.226Z,37.59
2022-07-25T10:13:40.197Z,36.72
2022-07-25T10:14:40.192Z,36.70
2022-07-25T10:15:40.186Z,36.68
2022-07-25T10:16:40.214Z,35.89
2022-07-25T10:17:40.194Z,33.97
2022-07-25T10:18:40.160Z,33.89
2022-07-25T10:19:40.178Z,35.44
2022-07-25T10:20:40.148Z,34.11
2022-07-25T10:21:40.144Z,34.53
2022-07-25T10:22:55.951Z,34.83
2022-07-25T10:23:42.134Z,35.71
2022-07-25T10:24:40.124Z,36.29
2022-07-25T10:25:40.114Z,35.59
2022-07-25T10:26:40.142Z,34.83
2022-07-25T10:27:40.126Z,34.44
2022-07-25T10:28:40.118Z,34.36
2022-07-25T10:29:40.087Z,34.85
2022-07-25T10:30:40.137Z,35.45
2022-07-25T10:31:40.082Z,37.01
2022-07-25T10:32:40.098Z,37.41
2022-07-25T10:33:40.067Z,36.42
2022-07-25T10:34:40.064Z,35.94
2022-07-25T10:35:40.090Z,37.01
2022-07-25T10:36:40.044Z,36.89
2022-07-25T10:37:40.075Z,36.32
2022-07-25T10:38:40.031Z,37.10
2022-07-25T10:39:40.031Z,37.08
2022-07-25T10:40:40.013Z,37.66
2022-07-25T10:41:40.023Z,37.18
2022-07-25T10:42:40.030Z,37.08
2022-07-25T10:43:40.012Z,37.55
2022-07-25T10:44:39.993Z,37.45
2022-07-25T10:45:40.013Z,37.26
2022-07-25T10:46:40.075Z,37.07
2022-07-25T10:47:40.004Z,37.37
2022-07-25T10:48:40.001Z,36.69
2022-07-25T10:49:50.184Z,37.08
2022-07-25T10:50:55.274Z,36.79
2022-07-25T10:51:42.302Z,36.08
2022-07-25T10:52:40.977Z,35.21
2022-07-25T10:53:39.924Z,36.54
2022-07-25T10:54:39.919Z,35.75
2022-07-25T10:55:39.911Z,35.36
2022-07-25T10:56:39.904Z,35.83
2022-07-25T10:57:54.943Z,35.93
2022-07-25T10:58:41.898Z,35.04
2022-07-25T10:59:39.884Z,35.36
2022-07-25T11:00:39.874Z,35.49
2022-07-25T11:01:40.003Z,35.88
2022-07-25T11:02:39.895Z,35.01
2022-07-25T11:03:39.887Z,35.86
2022-07-25T11:04:39.858Z,35.17
2022-07-25T11:05:39.853Z,34.78
2022-07-25T11:06:39.837Z,35.36
2022-07-25T11:07:39.860Z,35.66
2022-07-25T11:08:39.829Z,35.17
2022-07-25T11:09:39.814Z,34.69
2022-07-25T11:10:39.810Z,35.46
2022-07-25T11:11:39.805Z,35.38
2022-07-25T11:12:39.821Z,35.40
2022-07-25T11:13:39.815Z,36.66
2022-07-25T11:14:39.781Z,36.36
2022-07-25T11:15:39.780Z,35.78
2022-07-25T11:16:39.820Z,35.30
2022-07-25T11:17:39.761Z,35.38
2022-07-25T11:18:39.787Z,35.19
2022-07-25T11:19:39.749Z,35.67
2022-07-25T11:20:39.735Z,35.96
2022-07-25T11:21:39.731Z,35.94
2022-07-25T11:22:39.729Z,34.97
2022-07-25T11:23:39.743Z,34.78
2022-07-25T11:24:39.707Z,35.44
2022-07-25T11:25:39.715Z,35.15
2022-07-25T11:26:39.697Z,35.15
2022-07-25T11:27:39.718Z,35.07
2022-07-25T11:28:39.708Z,33.62
2022-07-25T11:29:39.674Z,33.73
2022-07-25T11:30:39.671Z,33.91
2022-07-25T11:31:39.720Z,33.51
2022-07-25T11:32:39.667Z,34.17
2022-07-25T11:33:39.691Z,33.20
2022-07-25T11:34:39.658Z,33.70
2022-07-25T11:35:40.298Z,33.31
2022-07-25T11:36:39.680Z,33.31
2022-07-25T11:37:39.628Z,33.02
2022-07-25T11:38:39.645Z,33.89
2022-07-25T11:39:39.613Z,33.12
2022-07-25T11:40:39.613Z,33.89
2022-07-25T11:41:39.616Z,33.80
2022-07-25T11:42:39.603Z,33.51
2022-07-25T11:43:39.610Z,33.29
2022-07-25T11:44:42.900Z,34.36
2022-07-25T11:45:40.592Z,33.87
2022-07-25T11:46:39.593Z,33.69
2022-07-25T11:47:39.560Z,33.57
2022-07-25T11:48:39.630Z,32.92
2022-07-25T11:49:39.548Z,33.33
2022-07-25T11:50:39.545Z,33.72
2022-07-25T11:51:39.552Z,33.91
2022-07-25T11:52:39.530Z,34.41
2022-07-25T11:53:39.545Z,33.65
2022-07-25T11:54:39.518Z,33.94
2022-07-25T11:55:39.519Z,34.31
2022-07-25T11:56:43.069Z,34.20
2022-07-25T11:57:40.497Z,33.41
2022-07-25T11:58:39.507Z,32.36
2022-07-25T11:59:39.481Z,32.84
2022-07-25T12:00:39.507Z,32.28
2022-07-25T12:01:39.476Z,32.79
2022-07-25T12:02:39.580Z,32.52
2022-07-25T12:03:39.539Z,32.32
2022-07-25T12:04:39.443Z,33.70
2022-07-25T12:05:40.439Z,33.69
2022-07-25T12:06:39.428Z,33.86
2022-07-25T12:07:39.423Z,33.75
2022-07-25T12:08:39.443Z,33.92
2022-07-25T12:09:39.446Z,34.01
2022-07-25T12:10:39.405Z,34.01
2022-07-25T12:11:39.398Z,33.62
2022-07-25T12:12:39.406Z,33.52
2022-07-25T12:13:39.382Z,33.91
2022-07-25T12:14:39.403Z,33.52
2022-07-25T12:15:39.367Z,32.07
2022-07-25T12:16:39.425Z,33.06
2022-07-25T12:17:39.356Z,33.56
2022-07-25T12:18:39.346Z,33.67
2022-07-25T12:19:39.335Z,33.67
2022-07-25T12:20:39.363Z,35.32
2022-07-25T12:21:39.324Z,34.95
2022-07-25T12:22:39.318Z,35.14
2022-07-25T12:23:39.312Z,35.06
2022-07-25T12:24:39.321Z,35.14
2022-07-25T12:25:39.323Z,34.75
2022-07-25T12:26:39.302Z,34.66
2022-07-25T12:27:39.279Z,35.13
2022-07-25T12:28:39.281Z,34.74
2022-07-25T12:29:39.275Z,34.14
2022-07-25T12:30:39.389Z,34.61
2022-07-25T12:31:39.259Z,34.99
2022-07-25T12:32:39.245Z,34.97
2022-07-25T12:33:39.243Z,33.91
2022-07-25T12:34:39.232Z,34.41
2022-07-25T12:35:39.257Z,33.83
2022-07-25T12:36:39.224Z,33.94
2022-07-25T12:37:39.235Z,34.33
2022-07-25T12:38:39.211Z,34.14
2022-07-25T12:39:39.205Z,34.31
2022-07-25T12:40:39.233Z,34.80
2022-07-25T12:41:39.184Z,33.89
2022-07-25T12:42:39.179Z,34.54
2022-07-25T12:43:39.175Z,34.52
2022-07-25T12:44:39.161Z,32.75
2022-07-25T12:45:39.239Z,32.86
2022-07-25T12:46:39.154Z,33.42
2022-07-25T12:47:39.145Z,32.67
2022-07-25T12:48:39.163Z,33.83
2022-07-25T12:49:39.131Z,33.15
2022-07-25T12:50:39.145Z,32.59
2022-07-25T12:51:39.123Z,33.07
2022-07-25T12:52:39.107Z,33.34
2022-07-25T12:53:42.485Z,32.38